sensor_id;sensor_type;location;lat;lon;timestamp;temperature;humidity
39621;DHT22;25309;48.686;9.170;2023-04-29T00:01:39;13.40;99.90
39621;DHT22;25309;48.686;9.170;2023-04-29T00:04:08;13.40;99.90
39621;DHT22;25309;48.686;9.170;2023-04-29T00:06:35;13.40;99.90
39621;DHT22;25309;48.686;9.170;2023-04-29T00:09:02;13.40;99.90
39621;DHT22;25309;48.686;9.170;2023-04-29T00:11:30;13.40;99.90
39621;DHT22;25309;48.686;9.170;2023-04-29T00:13:57;13.40;99.90
39621;DHT22;25309;48.686;9.170;2023-04-29T00:16:24;13.40;99.90
39621;DHT22;25309;48.686;9.170;2023-04-29T00:18:51;13.40;99.90
39621;DHT22;25309;48.686;9.170;2023-04-29T00:21:20;13.40;99.90
39621;DHT22;25309;48.686;9.170;2023-04-29T00:23:47;13.40;99.90
39621;DHT22;25309;48.686;9.170;2023-04-29T00:26:13;13.40;99.90
39621;DHT22;25309;48.686;9.170;2023-04-29T00:28:45;13.50;99.90
39621;DHT22;25309;48.686;9.170;2023-04-29T00:31:12;13.50;99.90
39621;DHT22;25309;48.686;9.170;2023-04-29T00:33:39;13.50;99.90
39621;DHT22;25309;48.686;9.170;2023-04-29T00:36:06;13.50;99.90
39621;DHT22;25309;48.686;9.170;2023-04-29T00:38:35;13.50;99.90
39621;DHT22;25309;48.686;9.170;2023-04-29T00:41:02;13.50;99.90
39621;DHT22;25309;48.686;9.170;2023-04-29T00:43:29;13.50;99.90
39621;DHT22;25309;48.686;9.170;2023-04-29T00:45:56;13.50;99.90
39621;DHT22;25309;48.686;9.170;2023-04-29T00:48:24;13.50;99.90
39621;DHT22;25309;48.686;9.170;2023-04-29T00:50:52;13.50;99.90
39621;DHT22;25309;48.686;9.170;2023-04-29T00:53:19;13.40;99.90
39621;DHT22;25309;48.686;9.170;2023-04-29T00:55:49;13.40;99.90
39621;DHT22;25309;48.686;9.170;2023-04-29T00:58:17;13.40;99.90
39621;DHT22;25309;48.686;9.170;2023-04-29T01:00:46;13.30;99.90
39621;DHT22;25309;48.686;9.170;2023-04-29T01:03:14;13.30;99.90
39621;DHT22;25309;48.686;9.170;2023-04-29T01:05:43;13.40;99.90
39621;DHT22;25309;48.686;9.170;2023-04-29T01:08:18;13.40;99.90
39621;DHT22;25309;48.686;9.170;2023-04-29T01:10:54;13.40;99.90
39621;DHT22;25309;48.686;9.170;2023-04-29T01:13:29;13.40;99.90
39621;DHT22;25309;48.686;9.170;2023-04-29T01:16:01;13.40;99.90
39621;DHT22;25309;48.686;9.170;2023-04-29T01:18:35;13.40;99.90
39621;DHT22;25309;48.686;9.170;2023-04-29T01:21:03;13.40;99.90
39621;DHT22;25309;48.686;9.170;2023-04-29T01:23:31;13.40;99.90
39621;DHT22;25309;48.686;9.170;2023-04-29T01:25:58;13.40;99.90
39621;DHT22;25309;48.686;9.170;2023-04-29T01:28:52;13.30;99.90
39621;DHT22;25309;48.686;9.170;2023-04-29T01:31:26;13.30;99.90
39621;DHT22;25309;48.686;9.170;2023-04-29T01:34:02;13.40;99.90
39621;DHT22;25309;48.686;9.170;2023-04-29T01:36:36;13.30;99.90
39621;DHT22;25309;48.686;9.170;2023-04-29T01:39:12;13.30;99.90
39621;DHT22;25309;48.686;9.170;2023-04-29T01:41:42;13.30;99.90
39621;DHT22;25309;48.686;9.170;2023-04-29T01:44:19;13.30;99.90
39621;DHT22;25309;48.686;9.170;2023-04-29T01:46:49;13.30;99.90
39621;DHT22;25309;48.686;9.170;2023-04-29T01:49:19;13.30;99.90
39621;DHT22;25309;48.686;9.170;2023-04-29T01:51:47;13.30;99.90
39621;DHT22;25309;48.686;9.170;2023-04-29T01:54:15;13.30;99.90
39621;DHT22;25309;48.686;9.170;2023-04-29T01:56:43;13.20;99.90
39621;DHT22;25309;48.686;9.170;2023-04-29T01:59:27;13.20;99.90
39621;DHT22;25309;48.686;9.170;2023-04-29T02:02:06;13.20;99.90
39621;DHT22;25309;48.686;9.170;2023-04-29T02:04:37;13.20;99.90
39621;DHT22;25309;48.686;9.170;2023-04-29T02:07:04;13.20;99.90
39621;DHT22;25309;48.686;9.170;2023-04-29T02:09:32;13.20;99.90
39621;DHT22;25309;48.686;9.170;2023-04-29T02:12:06;13.20;99.90
39621;DHT22;25309;48.686;9.170;2023-04-29T02:14:33;13.10;99.90
39621;DHT22;25309;48.686;9.170;2023-04-29T02:17:03;13.10;99.90
39621;DHT22;25309;48.686;9.170;2023-04-29T02:19:30;13.00;99.90
39621;DHT22;25309;48.686;9.170;2023-04-29T02:21:57;13.00;99.90
39621;DHT22;25309;48.686;9.170;2023-04-29T02:24:25;13.00;99.90
39621;DHT22;25309;48.686;9.170;2023-04-29T02:26:53;12.90;99.90
39621;DHT22;25309;48.686;9.170;2023-04-29T02:29:20;12.90;99.90
39621;DHT22;25309;48.686;9.170;2023-04-29T02:31:47;12.90;99.90
39621;DHT22;25309;48.686;9.170;2023-04-29T02:34:15;12.90;99.90
39621;DHT22;25309;48.686;9.170;2023-04-29T02:36:42;12.90;99.90
39621;DHT22;25309;48.686;9.170;2023-04-29T02:39:09;12.80;99.90
39621;DHT22;25309;48.686;9.170;2023-04-29T02:41:36;12.80;99.90
39621;DHT22;25309;48.686;9.170;2023-04-29T02:44:04;12.80;99.90
39621;DHT22;25309;48.686;9.170;2023-04-29T02:46:31;12.80;99.90
39621;DHT22;25309;48.686;9.170;2023-04-29T02:49:01;12.80;99.90
39621;DHT22;25309;48.686;9.170;2023-04-29T02:51:28;12.80;99.90
39621;DHT22;25309;48.686;9.170;2023-04-29T02:53:56;12.70;99.90
39621;DHT22;25309;48.686;9.170;2023-04-29T02:56:24;12.70;99.90
39621;DHT22;25309;48.686;9.170;2023-04-29T02:58:51;12.70;99.90
39621;DHT22;25309;48.686;9.170;2023-04-29T03:01:19;12.70;99.90
39621;DHT22;25309;48.686;9.170;2023-04-29T03:03:47;12.70;99.90
39621;DHT22;25309;48.686;9.170;2023-04-29T03:06:16;12.60;99.90
39621;DHT22;25309;48.686;9.170;2023-04-29T03:08:43;12.60;99.90
39621;DHT22;25309;48.686;9.170;2023-04-29T03:11:09;12.60;99.90
39621;DHT22;25309;48.686;9.170;2023-04-29T03:13:37;12.50;99.90
39621;DHT22;25309;48.686;9.170;2023-04-29T03:16:06;12.60;99.90
39621;DHT22;25309;48.686;9.170;2023-04-29T03:18:34;12.60;99.90
39621;DHT22;25309;48.686;9.170;2023-04-29T03:21:01;12.50;99.90
39621;DHT22;25309;48.686;9.170;2023-04-29T03:23:30;12.60;99.90
39621;DHT22;25309;48.686;9.170;2023-04-29T03:25:57;12.60;99.90
39621;DHT22;25309;48.686;9.170;2023-04-29T03:28:24;12.50;99.90
39621;DHT22;25309;48.686;9.170;2023-04-29T03:30:51;12.50;99.90
39621;DHT22;25309;48.686;9.170;2023-04-29T03:33:18;12.40;99.90
39621;DHT22;25309;48.686;9.170;2023-04-29T03:35:47;12.40;99.90
39621;DHT22;25309;48.686;9.170;2023-04-29T03:38:14;12.40;99.90
39621;DHT22;25309;48.686;9.170;2023-04-29T03:40:42;12.30;99.90
39621;DHT22;25309;48.686;9.170;2023-04-29T03:43:11;12.30;99.90
39621;DHT22;25309;48.686;9.170;2023-04-29T03:45:40;12.40;99.90
39621;DHT22;25309;48.686;9.170;2023-04-29T03:48:07;12.40;99.90
39621;DHT22;25309;48.686;9.170;2023-04-29T03:50:34;12.40;99.90
39621;DHT22;25309;48.686;9.170;2023-04-29T03:53:03;12.30;99.90
39621;DHT22;25309;48.686;9.170;2023-04-29T03:55:31;12.30;99.90
39621;DHT22;25309;48.686;9.170;2023-04-29T03:57:58;12.20;99.90
39621;DHT22;25309;48.686;9.170;2023-04-29T04:00:26;12.20;99.90
39621;DHT22;25309;48.686;9.170;2023-04-29T04:02:57;12.10;99.90
39621;DHT22;25309;48.686;9.170;2023-04-29T04:05:25;12.10;99.90
39621;DHT22;25309;48.686;9.170;2023-04-29T04:07:58;12.10;99.90
39621;DHT22;25309;48.686;9.170;2023-04-29T04:10:33;12.10;99.90
39621;DHT22;25309;48.686;9.170;2023-04-29T04:13:03;12.10;99.90
39621;DHT22;25309;48.686;9.170;2023-04-29T04:15:31;12.00;99.90
39621;DHT22;25309;48.686;9.170;2023-04-29T04:17:58;12.00;99.90
39621;DHT22;25309;48.686;9.170;2023-04-29T04:20:25;12.00;99.90
39621;DHT22;25309;48.686;9.170;2023-04-29T04:22:53;12.00;99.90
39621;DHT22;25309;48.686;9.170;2023-04-29T04:25:26;11.90;99.90
39621;DHT22;25309;48.686;9.170;2023-04-29T04:28:01;11.90;99.90
39621;DHT22;25309;48.686;9.170;2023-04-29T04:30:47;11.90;99.90
39621;DHT22;25309;48.686;9.170;2023-04-29T04:33:14;11.80;99.90
39621;DHT22;25309;48.686;9.170;2023-04-29T04:35:44;11.80;99.90
39621;DHT22;25309;48.686;9.170;2023-04-29T04:38:11;11.80;99.90
39621;DHT22;25309;48.686;9.170;2023-04-29T04:40:40;11.80;99.90
39621;DHT22;25309;48.686;9.170;2023-04-29T04:43:38;11.80;99.90
39621;DHT22;25309;48.686;9.170;2023-04-29T04:46:14;11.80;99.90
39621;DHT22;25309;48.686;9.170;2023-04-29T04:49:00;11.70;99.90
39621;DHT22;25309;48.686;9.170;2023-04-29T04:51:28;11.70;99.90
39621;DHT22;25309;48.686;9.170;2023-04-29T04:53:55;11.70;99.90
39621;DHT22;25309;48.686;9.170;2023-04-29T04:56:23;11.60;99.90
39621;DHT22;25309;48.686;9.170;2023-04-29T04:58:52;11.70;99.90
39621;DHT22;25309;48.686;9.170;2023-04-29T05:01:18;11.70;99.90
39621;DHT22;25309;48.686;9.170;2023-04-29T05:03:45;11.70;99.90
39621;DHT22;25309;48.686;9.170;2023-04-29T05:06:13;11.70;99.90
39621;DHT22;25309;48.686;9.170;2023-04-29T05:08:43;11.70;99.90
39621;DHT22;25309;48.686;9.170;2023-04-29T05:11:15;11.70;99.90
39621;DHT22;25309;48.686;9.170;2023-04-29T05:13:44;11.70;99.90
39621;DHT22;25309;48.686;9.170;2023-04-29T05:16:14;11.70;99.90
39621;DHT22;25309;48.686;9.170;2023-04-29T05:18:44;11.70;99.90
39621;DHT22;25309;48.686;9.170;2023-04-29T05:21:12;11.70;99.90
39621;DHT22;25309;48.686;9.170;2023-04-29T05:23:42;11.80;99.90
39621;DHT22;25309;48.686;9.170;2023-04-29T05:26:09;11.90;99.90
39621;DHT22;25309;48.686;9.170;2023-04-29T05:28:36;12.00;99.90
39621;DHT22;25309;48.686;9.170;2023-04-29T05:31:04;12.00;99.90
39621;DHT22;25309;48.686;9.170;2023-04-29T05:33:33;12.00;99.90
39621;DHT22;25309;48.686;9.170;2023-04-29T05:36:00;12.10;99.90
39621;DHT22;25309;48.686;9.170;2023-04-29T05:38:27;12.10;99.90
39621;DHT22;25309;48.686;9.170;2023-04-29T05:41:06;12.10;99.90
39621;DHT22;25309;48.686;9.170;2023-04-29T05:43:44;12.20;99.90
39621;DHT22;25309;48.686;9.170;2023-04-29T05:46:13;12.20;99.90
39621;DHT22;25309;48.686;9.170;2023-04-29T05:48:42;12.30;99.90
39621;DHT22;25309;48.686;9.170;2023-04-29T05:51:11;12.30;99.90
39621;DHT22;25309;48.686;9.170;2023-04-29T05:53:38;12.40;99.90
39621;DHT22;25309;48.686;9.170;2023-04-29T05:56:06;12.40;99.90
39621;DHT22;25309;48.686;9.170;2023-04-29T05:58:35;12.50;99.90
39621;DHT22;25309;48.686;9.170;2023-04-29T06:01:02;12.50;99.90
39621;DHT22;25309;48.686;9.170;2023-04-29T06:03:29;12.60;99.90
39621;DHT22;25309;48.686;9.170;2023-04-29T06:06:27;12.70;99.90
39621;DHT22;25309;48.686;9.170;2023-04-29T06:09:07;12.80;99.90
39621;DHT22;25309;48.686;9.170;2023-04-29T06:11:49;12.90;99.90
39621;DHT22;25309;48.686;9.170;2023-04-29T06:14:16;13.00;99.90
39621;DHT22;25309;48.686;9.170;2023-04-29T06:16:43;13.00;99.90
39621;DHT22;25309;48.686;9.170;2023-04-29T06:19:10;13.10;99.90
39621;DHT22;25309;48.686;9.170;2023-04-29T06:21:38;13.20;99.90
39621;DHT22;25309;48.686;9.170;2023-04-29T06:24:05;13.30;99.90
39621;DHT22;25309;48.686;9.170;2023-04-29T06:26:34;13.30;99.90
39621;DHT22;25309;48.686;9.170;2023-04-29T06:29:01;13.40;99.90
39621;DHT22;25309;48.686;9.170;2023-04-29T06:31:28;13.40;99.90
39621;DHT22;25309;48.686;9.170;2023-04-29T06:33:59;13.40;99.90
39621;DHT22;25309;48.686;9.170;2023-04-29T06:36:26;13.30;99.90
39621;DHT22;25309;48.686;9.170;2023-04-29T06:39:03;13.30;99.90
39621;DHT22;25309;48.686;9.170;2023-04-29T06:42:02;13.30;99.90
39621;DHT22;25309;48.686;9.170;2023-04-29T06:44:45;13.30;99.90
39621;DHT22;25309;48.686;9.170;2023-04-29T06:47:27;13.30;99.90
39621;DHT22;25309;48.686;9.170;2023-04-29T06:50:21;13.40;99.90
39621;DHT22;25309;48.686;9.170;2023-04-29T06:52:48;13.50;99.90
39621;DHT22;25309;48.686;9.170;2023-04-29T06:55:16;13.50;99.90
39621;DHT22;25309;48.686;9.170;2023-04-29T06:57:43;13.50;99.90
39621;DHT22;25309;48.686;9.170;2023-04-29T07:00:13;13.50;99.90
39621;DHT22;25309;48.686;9.170;2023-04-29T07:02:41;13.40;99.90
39621;DHT22;25309;48.686;9.170;2023-04-29T07:05:09;13.40;99.90
39621;DHT22;25309;48.686;9.170;2023-04-29T07:07:36;13.30;99.90
39621;DHT22;25309;48.686;9.170;2023-04-29T07:10:04;13.30;99.90
39621;DHT22;25309;48.686;9.170;2023-04-29T07:12:32;13.30;99.90
39621;DHT22;25309;48.686;9.170;2023-04-29T07:14:59;13.30;99.90
39621;DHT22;25309;48.686;9.170;2023-04-29T07:17:28;13.30;99.90
39621;DHT22;25309;48.686;9.170;2023-04-29T07:19:56;13.40;99.90
39621;DHT22;25309;48.686;9.170;2023-04-29T07:22:23;13.40;99.90
39621;DHT22;25309;48.686;9.170;2023-04-29T07:24:52;13.50;99.90
39621;DHT22;25309;48.686;9.170;2023-04-29T07:27:19;13.60;99.90
39621;DHT22;25309;48.686;9.170;2023-04-29T07:29:48;13.70;99.90
39621;DHT22;25309;48.686;9.170;2023-04-29T07:32:15;13.90;99.90
39621;DHT22;25309;48.686;9.170;2023-04-29T07:34:42;14.00;99.90
39621;DHT22;25309;48.686;9.170;2023-04-29T07:37:09;14.20;99.90
39621;DHT22;25309;48.686;9.170;2023-04-29T07:39:36;14.20;99.90
39621;DHT22;25309;48.686;9.170;2023-04-29T07:42:03;14.40;99.90
39621;DHT22;25309;48.686;9.170;2023-04-29T07:44:30;14.40;99.90
39621;DHT22;25309;48.686;9.170;2023-04-29T07:46:59;14.40;99.90
39621;DHT22;25309;48.686;9.170;2023-04-29T07:49:26;14.40;99.90
39621;DHT22;25309;48.686;9.170;2023-04-29T07:51:53;14.40;99.90
39621;DHT22;25309;48.686;9.170;2023-04-29T07:54:20;14.60;99.90
39621;DHT22;25309;48.686;9.170;2023-04-29T07:56:48;14.60;99.90
39621;DHT22;25309;48.686;9.170;2023-04-29T07:59:15;14.70;99.90
39621;DHT22;25309;48.686;9.170;2023-04-29T08:01:42;14.70;99.90
39621;DHT22;25309;48.686;9.170;2023-04-29T08:04:11;14.70;99.90
39621;DHT22;25309;48.686;9.170;2023-04-29T08:06:48;14.80;99.90
39621;DHT22;25309;48.686;9.170;2023-04-29T08:09:15;14.80;99.90
39621;DHT22;25309;48.686;9.170;2023-04-29T08:11:42;14.80;99.90
39621;DHT22;25309;48.686;9.170;2023-04-29T08:14:12;14.90;99.90
39621;DHT22;25309;48.686;9.170;2023-04-29T08:16:39;15.00;99.90
39621;DHT22;25309;48.686;9.170;2023-04-29T08:19:06;15.10;99.90
39621;DHT22;25309;48.686;9.170;2023-04-29T08:21:34;15.10;99.90
39621;DHT22;25309;48.686;9.170;2023-04-29T08:24:01;15.20;99.90
39621;DHT22;25309;48.686;9.170;2023-04-29T08:26:28;15.20;99.90
39621;DHT22;25309;48.686;9.170;2023-04-29T08:28:56;15.20;99.90
39621;DHT22;25309;48.686;9.170;2023-04-29T08:31:23;15.20;99.90
39621;DHT22;25309;48.686;9.170;2023-04-29T08:33:49;15.20;99.90
39621;DHT22;25309;48.686;9.170;2023-04-29T08:36:16;15.20;99.90
39621;DHT22;25309;48.686;9.170;2023-04-29T08:38:45;15.20;99.90
39621;DHT22;25309;48.686;9.170;2023-04-29T08:41:12;15.20;99.90
39621;DHT22;25309;48.686;9.170;2023-04-29T08:43:41;15.20;99.90
39621;DHT22;25309;48.686;9.170;2023-04-29T08:46:08;15.30;99.90
39621;DHT22;25309;48.686;9.170;2023-04-29T08:48:37;15.40;99.90
39621;DHT22;25309;48.686;9.170;2023-04-29T08:51:11;15.50;99.90
39621;DHT22;25309;48.686;9.170;2023-04-29T08:53:39;15.60;99.90
39621;DHT22;25309;48.686;9.170;2023-04-29T08:56:15;15.70;99.90
39621;DHT22;25309;48.686;9.170;2023-04-29T08:58:49;15.90;99.90
39621;DHT22;25309;48.686;9.170;2023-04-29T09:01:26;15.90;99.90
39621;DHT22;25309;48.686;9.170;2023-04-29T09:04:03;15.90;99.90
39621;DHT22;25309;48.686;9.170;2023-04-29T09:06:31;15.90;99.90
39621;DHT22;25309;48.686;9.170;2023-04-29T09:08:59;16.00;99.90
39621;DHT22;25309;48.686;9.170;2023-04-29T09:11:29;16.10;99.90
39621;DHT22;25309;48.686;9.170;2023-04-29T09:13:58;16.10;99.90
39621;DHT22;25309;48.686;9.170;2023-04-29T09:16:26;16.30;99.90
39621;DHT22;25309;48.686;9.170;2023-04-29T09:18:53;16.40;99.90
39621;DHT22;25309;48.686;9.170;2023-04-29T09:21:23;16.70;99.90
39621;DHT22;25309;48.686;9.170;2023-04-29T09:23:51;16.80;99.90
39621;DHT22;25309;48.686;9.170;2023-04-29T09:26:18;16.80;99.90
39621;DHT22;25309;48.686;9.170;2023-04-29T09:29:05;16.90;99.90
39621;DHT22;25309;48.686;9.170;2023-04-29T09:31:33;17.10;99.90
39621;DHT22;25309;48.686;9.170;2023-04-29T09:33:59;17.30;99.90
39621;DHT22;25309;48.686;9.170;2023-04-29T09:36:38;17.50;99.90
39621;DHT22;25309;48.686;9.170;2023-04-29T09:39:05;17.70;99.90
39621;DHT22;25309;48.686;9.170;2023-04-29T09:41:42;17.80;99.90
39621;DHT22;25309;48.686;9.170;2023-04-29T09:44:25;18.00;99.90
39621;DHT22;25309;48.686;9.170;2023-04-29T09:46:56;18.10;99.90
39621;DHT22;25309;48.686;9.170;2023-04-29T09:49:25;18.20;99.90
39621;DHT22;25309;48.686;9.170;2023-04-29T09:51:54;18.30;99.90
39621;DHT22;25309;48.686;9.170;2023-04-29T09:54:22;18.30;99.90
39621;DHT22;25309;48.686;9.170;2023-04-29T09:56:50;18.40;99.90
39621;DHT22;25309;48.686;9.170;2023-04-29T09:59:17;18.60;99.90
39621;DHT22;25309;48.686;9.170;2023-04-29T10:01:48;18.70;99.90
39621;DHT22;25309;48.686;9.170;2023-04-29T10:04:17;18.80;99.90
39621;DHT22;25309;48.686;9.170;2023-04-29T10:06:47;18.80;99.90
39621;DHT22;25309;48.686;9.170;2023-04-29T10:09:15;19.00;99.90
39621;DHT22;25309;48.686;9.170;2023-04-29T10:11:42;19.30;99.90
39621;DHT22;25309;48.686;9.170;2023-04-29T10:14:12;19.90;99.90
39621;DHT22;25309;48.686;9.170;2023-04-29T10:16:45;20.50;99.90
39621;DHT22;25309;48.686;9.170;2023-04-29T10:19:18;21.10;99.90
39621;DHT22;25309;48.686;9.170;2023-04-29T10:21:50;21.50;99.90
39621;DHT22;25309;48.686;9.170;2023-04-29T10:24:20;21.80;99.90
39621;DHT22;25309;48.686;9.170;2023-04-29T10:26:49;22.00;99.90
39621;DHT22;25309;48.686;9.170;2023-04-29T10:29:17;22.40;99.90
39621;DHT22;25309;48.686;9.170;2023-04-29T10:31:45;22.90;99.90
39621;DHT22;25309;48.686;9.170;2023-04-29T10:34:17;23.20;99.90
39621;DHT22;25309;48.686;9.170;2023-04-29T10:36:45;23.10;99.90
39621;DHT22;25309;48.686;9.170;2023-04-29T10:39:22;22.90;99.90
39621;DHT22;25309;48.686;9.170;2023-04-29T10:41:50;23.20;99.90
39621;DHT22;25309;48.686;9.170;2023-04-29T10:44:17;23.10;98.40
39621;DHT22;25309;48.686;9.170;2023-04-29T10:46:44;23.20;98.90
39621;DHT22;25309;48.686;9.170;2023-04-29T10:49:11;23.10;97.70
39621;DHT22;25309;48.686;9.170;2023-04-29T10:51:44;22.80;97.60
39621;DHT22;25309;48.686;9.170;2023-04-29T10:54:12;22.50;96.80
39621;DHT22;25309;48.686;9.170;2023-04-29T10:56:41;22.30;97.90
39621;DHT22;25309;48.686;9.170;2023-04-29T10:59:10;22.10;98.50
39621;DHT22;25309;48.686;9.170;2023-04-29T11:01:42;22.10;96.60
39621;DHT22;25309;48.686;9.170;2023-04-29T11:04:10;21.90;97.00
39621;DHT22;25309;48.686;9.170;2023-04-29T11:06:46;21.60;97.30
39621;DHT22;25309;48.686;9.170;2023-04-29T11:09:18;21.40;97.70
39621;DHT22;25309;48.686;9.170;2023-04-29T11:11:59;21.40;97.10
39621;DHT22;25309;48.686;9.170;2023-04-29T11:14:31;21.40;98.00
39621;DHT22;25309;48.686;9.170;2023-04-29T11:17:00;21.40;97.50
39621;DHT22;25309;48.686;9.170;2023-04-29T11:19:30;21.40;97.10
39621;DHT22;25309;48.686;9.170;2023-04-29T11:22:11;21.20;96.80
39621;DHT22;25309;48.686;9.170;2023-04-29T11:24:53;21.30;96.50
39621;DHT22;25309;48.686;9.170;2023-04-29T11:27:22;21.40;98.10
39621;DHT22;25309;48.686;9.170;2023-04-29T11:29:52;21.50;97.60
39621;DHT22;25309;48.686;9.170;2023-04-29T11:32:24;21.90;96.50
39621;DHT22;25309;48.686;9.170;2023-04-29T11:34:52;22.10;96.10
39621;DHT22;25309;48.686;9.170;2023-04-29T11:37:23;22.10;96.00
39621;DHT22;25309;48.686;9.170;2023-04-29T11:39:50;22.20;96.20
39621;DHT22;25309;48.686;9.170;2023-04-29T11:42:21;22.30;95.10
39621;DHT22;25309;48.686;9.170;2023-04-29T11:44:50;22.20;95.00
39621;DHT22;25309;48.686;9.170;2023-04-29T11:47:19;22.30;95.30
39621;DHT22;25309;48.686;9.170;2023-04-29T11:49:47;22.10;94.10
39621;DHT22;25309;48.686;9.170;2023-04-29T11:52:14;22.00;94.30
39621;DHT22;25309;48.686;9.170;2023-04-29T11:54:43;21.80;94.20
39621;DHT22;25309;48.686;9.170;2023-04-29T11:57:10;21.60;94.00
39621;DHT22;25309;48.686;9.170;2023-04-29T11:59:37;21.60;94.20
39621;DHT22;25309;48.686;9.170;2023-04-29T12:02:05;21.90;95.50
39621;DHT22;25309;48.686;9.170;2023-04-29T12:04:32;22.30;94.20
39621;DHT22;25309;48.686;9.170;2023-04-29T12:07:01;22.50;92.90
39621;DHT22;25309;48.686;9.170;2023-04-29T12:09:28;22.40;92.20
39621;DHT22;25309;48.686;9.170;2023-04-29T12:11:56;22.30;92.00
39621;DHT22;25309;48.686;9.170;2023-04-29T12:14:23;22.20;92.50
39621;DHT22;25309;48.686;9.170;2023-04-29T12:16:50;22.20;92.80
39621;DHT22;25309;48.686;9.170;2023-04-29T12:19:18;22.40;92.40
39621;DHT22;25309;48.686;9.170;2023-04-29T12:21:48;22.50;91.70
39621;DHT22;25309;48.686;9.170;2023-04-29T12:24:15;22.40;92.10
39621;DHT22;25309;48.686;9.170;2023-04-29T12:26:44;22.50;91.90
39621;DHT22;25309;48.686;9.170;2023-04-29T12:29:12;22.30;91.80
39621;DHT22;25309;48.686;9.170;2023-04-29T12:31:40;22.10;92.50
39621;DHT22;25309;48.686;9.170;2023-04-29T12:34:07;21.90;93.00
39621;DHT22;25309;48.686;9.170;2023-04-29T12:36:36;21.60;94.50
39621;DHT22;25309;48.686;9.170;2023-04-29T12:39:05;21.30;95.30
39621;DHT22;25309;48.686;9.170;2023-04-29T12:41:36;21.10;95.50
39621;DHT22;25309;48.686;9.170;2023-04-29T12:44:04;20.90;96.00
39621;DHT22;25309;48.686;9.170;2023-04-29T12:46:36;20.90;96.20
39621;DHT22;25309;48.686;9.170;2023-04-29T12:49:04;20.70;96.20
39621;DHT22;25309;48.686;9.170;2023-04-29T12:51:32;20.60;96.90
39621;DHT22;25309;48.686;9.170;2023-04-29T12:54:00;20.90;96.70
39621;DHT22;25309;48.686;9.170;2023-04-29T12:56:27;21.50;96.10
39621;DHT22;25309;48.686;9.170;2023-04-29T12:58:54;22.00;95.60
39621;DHT22;25309;48.686;9.170;2023-04-29T13:01:21;22.50;94.10
39621;DHT22;25309;48.686;9.170;2023-04-29T13:03:49;22.90;94.30
39621;DHT22;25309;48.686;9.170;2023-04-29T13:06:17;23.50;94.00
39621;DHT22;25309;48.686;9.170;2023-04-29T13:08:44;24.10;93.20
39621;DHT22;25309;48.686;9.170;2023-04-29T13:11:11;24.50;92.10
39621;DHT22;25309;48.686;9.170;2023-04-29T13:13:39;24.60;90.40
39621;DHT22;25309;48.686;9.170;2023-04-29T13:16:06;24.40;89.50
39621;DHT22;25309;48.686;9.170;2023-04-29T13:18:34;23.90;90.40
39621;DHT22;25309;48.686;9.170;2023-04-29T13:21:03;23.60;91.30
39621;DHT22;25309;48.686;9.170;2023-04-29T13:23:30;23.60;90.80
39621;DHT22;25309;48.686;9.170;2023-04-29T13:25:57;23.60;90.90
39621;DHT22;25309;48.686;9.170;2023-04-29T13:28:24;23.60;91.10
39621;DHT22;25309;48.686;9.170;2023-04-29T13:30:51;23.40;90.50
39621;DHT22;25309;48.686;9.170;2023-04-29T13:33:18;23.10;90.80
39621;DHT22;25309;48.686;9.170;2023-04-29T13:35:46;22.90;90.80
39621;DHT22;25309;48.686;9.170;2023-04-29T13:38:15;22.50;91.20
39621;DHT22;25309;48.686;9.170;2023-04-29T13:40:43;22.30;91.60
39621;DHT22;25309;48.686;9.170;2023-04-29T13:43:12;22.10;91.90
39621;DHT22;25309;48.686;9.170;2023-04-29T13:45:54;22.00;92.50
39621;DHT22;25309;48.686;9.170;2023-04-29T13:48:22;21.90;92.30
39621;DHT22;25309;48.686;9.170;2023-04-29T13:51:09;21.90;92.50
39621;DHT22;25309;48.686;9.170;2023-04-29T13:53:41;22.10;92.30
39621;DHT22;25309;48.686;9.170;2023-04-29T13:56:18;22.40;92.40
39621;DHT22;25309;48.686;9.170;2023-04-29T13:58:48;22.60;91.90
39621;DHT22;25309;48.686;9.170;2023-04-29T14:01:18;22.60;91.90
39621;DHT22;25309;48.686;9.170;2023-04-29T14:04:05;22.40;92.00
39621;DHT22;25309;48.686;9.170;2023-04-29T14:06:32;22.30;92.20
39621;DHT22;25309;48.686;9.170;2023-04-29T14:09:01;22.40;92.40
39621;DHT22;25309;48.686;9.170;2023-04-29T14:11:30;22.30;91.70
39621;DHT22;25309;48.686;9.170;2023-04-29T14:13:57;21.80;92.10
39621;DHT22;25309;48.686;9.170;2023-04-29T14:16:24;21.40;93.10
39621;DHT22;25309;48.686;9.170;2023-04-29T14:18:51;21.30;93.10
39621;DHT22;25309;48.686;9.170;2023-04-29T14:21:18;21.10;93.20
39621;DHT22;25309;48.686;9.170;2023-04-29T14:23:48;20.90;93.80
39621;DHT22;25309;48.686;9.170;2023-04-29T14:26:16;20.80;94.00
39621;DHT22;25309;48.686;9.170;2023-04-29T14:28:54;20.90;93.90
39621;DHT22;25309;48.686;9.170;2023-04-29T14:31:24;21.10;94.20
39621;DHT22;25309;48.686;9.170;2023-04-29T14:33:51;21.40;94.00
39621;DHT22;25309;48.686;9.170;2023-04-29T14:36:18;21.60;93.80
39621;DHT22;25309;48.686;9.170;2023-04-29T14:38:45;21.80;93.20
39621;DHT22;25309;48.686;9.170;2023-04-29T14:41:12;21.80;92.90
39621;DHT22;25309;48.686;9.170;2023-04-29T14:43:40;21.70;92.90
39621;DHT22;25309;48.686;9.170;2023-04-29T14:46:08;21.40;92.60
39621;DHT22;25309;48.686;9.170;2023-04-29T14:48:35;21.30;93.10
39621;DHT22;25309;48.686;9.170;2023-04-29T14:51:02;21.10;93.30
39621;DHT22;25309;48.686;9.170;2023-04-29T14:53:29;20.90;93.30
39621;DHT22;25309;48.686;9.170;2023-04-29T14:55:56;20.80;93.70
39621;DHT22;25309;48.686;9.170;2023-04-29T14:58:24;20.60;93.70
39621;DHT22;25309;48.686;9.170;2023-04-29T15:00:52;20.30;93.80
39621;DHT22;25309;48.686;9.170;2023-04-29T15:03:19;20.20;94.30
39621;DHT22;25309;48.686;9.170;2023-04-29T15:05:49;20.10;94.60
39621;DHT22;25309;48.686;9.170;2023-04-29T15:08:17;19.90;94.80
39621;DHT22;25309;48.686;9.170;2023-04-29T15:10:44;19.70;95.30
39621;DHT22;25309;48.686;9.170;2023-04-29T15:13:15;19.50;95.40
39621;DHT22;25309;48.686;9.170;2023-04-29T15:15:42;19.30;95.60
39621;DHT22;25309;48.686;9.170;2023-04-29T15:18:10;19.10;95.50
39621;DHT22;25309;48.686;9.170;2023-04-29T15:20:37;18.90;96.00
39621;DHT22;25309;48.686;9.170;2023-04-29T15:23:05;18.70;96.00
39621;DHT22;25309;48.686;9.170;2023-04-29T15:25:32;18.50;96.20
39621;DHT22;25309;48.686;9.170;2023-04-29T15:28:00;18.40;96.90
39621;DHT22;25309;48.686;9.170;2023-04-29T15:30:27;18.40;97.10
39621;DHT22;25309;48.686;9.170;2023-04-29T15:32:54;18.40;97.80
39621;DHT22;25309;48.686;9.170;2023-04-29T15:35:23;18.30;97.20
39621;DHT22;25309;48.686;9.170;2023-04-29T15:37:50;18.30;97.40
39621;DHT22;25309;48.686;9.170;2023-04-29T15:40:17;18.30;97.30
39621;DHT22;25309;48.686;9.170;2023-04-29T15:42:44;18.20;97.30
39621;DHT22;25309;48.686;9.170;2023-04-29T15:45:11;18.00;97.70